sensor_id;sensor_type;location;lat;lon;timestamp;temperature;humidity
11944;DHT22;6031;50.220;10.122;2023-07-13T00:00:03;19.80;99.90
11944;DHT22;6031;50.220;10.122;2023-07-13T00:02:34;19.80;99.90
11944;DHT22;6031;50.220;10.122;2023-07-13T00:04:59;19.60;99.90
11944;DHT22;6031;50.220;10.122;2023-07-13T00:07:25;19.50;99.90
11944;DHT22;6031;50.220;10.122;2023-07-13T00:09:50;19.20;1.00
11944;DHT22;6031;50.220;10.122;2023-07-13T00:12:29;19.10;99.90
11944;DHT22;6031;50.220;10.122;2023-07-13T00:14:59;19.00;1.00
11944;DHT22;6031;50.220;10.122;2023-07-13T00:17:26;19.00;99.90
11944;DHT22;6031;50.220;10.122;2023-07-13T00:19:52;19.00;99.90
11944;DHT22;6031;50.220;10.122;2023-07-13T00:22:19;19.00;99.90
11944;DHT22;6031;50.220;10.122;2023-07-13T00:24:45;18.90;1.00
11944;DHT22;6031;50.220;10.122;2023-07-13T00:27:11;18.70;1.00
11944;DHT22;6031;50.220;10.122;2023-07-13T00:29:37;18.70;1.00
11944;DHT22;6031;50.220;10.122;2023-07-13T00:32:04;18.60;1.00
11944;DHT22;6031;50.220;10.122;2023-07-13T00:34:30;18.50;1.00
11944;DHT22;6031;50.220;10.122;2023-07-13T00:36:56;18.50;1.00
11944;DHT22;6031;50.220;10.122;2023-07-13T00:39:21;18.40;1.00
11944;DHT22;6031;50.220;10.122;2023-07-13T00:41:48;18.20;1.00
11944;DHT22;6031;50.220;10.122;2023-07-13T00:44:14;18.10;1.00
11944;DHT22;6031;50.220;10.122;2023-07-13T00:46:40;18.00;1.00
11944;DHT22;6031;50.220;10.122;2023-07-13T00:49:10;17.90;93.40
11944;DHT22;6031;50.220;10.122;2023-07-13T00:51:39;17.80;99.90
11944;DHT22;6031;50.220;10.122;2023-07-13T00:54:11;17.70;99.90
11944;DHT22;6031;50.220;10.122;2023-07-13T00:56:39;17.70;99.90
11944;DHT22;6031;50.220;10.122;2023-07-13T00:59:06;17.70;99.90
11944;DHT22;6031;50.220;10.122;2023-07-13T01:01:33;17.80;99.90
11944;DHT22;6031;50.220;10.122;2023-07-13T01:03:59;17.80;52.50
11944;DHT22;6031;50.220;10.122;2023-07-13T01:06:25;17.70;78.60
11944;DHT22;6031;50.220;10.122;2023-07-13T01:08:50;17.70;67.00
11944;DHT22;6031;50.220;10.122;2023-07-13T01:11:20;17.50;98.80
11944;DHT22;6031;50.220;10.122;2023-07-13T01:13:47;17.30;99.90
11944;DHT22;6031;50.220;10.122;2023-07-13T01:16:19;17.20;99.90
11944;DHT22;6031;50.220;10.122;2023-07-13T01:18:47;17.30;99.90
11944;DHT22;6031;50.220;10.122;2023-07-13T01:21:12;17.30;99.90
11944;DHT22;6031;50.220;10.122;2023-07-13T01:23:38;17.20;99.90
11944;DHT22;6031;50.220;10.122;2023-07-13T01:26:03;17.10;99.90
11944;DHT22;6031;50.220;10.122;2023-07-13T01:28:29;16.90;99.90
11944;DHT22;6031;50.220;10.122;2023-07-13T01:30:57;16.90;1.00
11944;DHT22;6031;50.220;10.122;2023-07-13T01:33:23;17.00;1.00
11944;DHT22;6031;50.220;10.122;2023-07-13T01:35:49;16.90;1.00
11944;DHT22;6031;50.220;10.122;2023-07-13T01:38:16;16.80;1.00
11944;DHT22;6031;50.220;10.122;2023-07-13T01:40:43;16.70;1.00
11944;DHT22;6031;50.220;10.122;2023-07-13T01:43:09;16.70;1.00
11944;DHT22;6031;50.220;10.122;2023-07-13T01:45:35;16.80;1.00
11944;DHT22;6031;50.220;10.122;2023-07-13T01:48:00;16.80;99.90
11944;DHT22;6031;50.220;10.122;2023-07-13T01:50:26;16.80;99.90
11944;DHT22;6031;50.220;10.122;2023-07-13T01:52:52;16.60;1.00
11944;DHT22;6031;50.220;10.122;2023-07-13T01:55:18;16.50;1.00
11944;DHT22;6031;50.220;10.122;2023-07-13T01:57:43;16.30;1.00
11944;DHT22;6031;50.220;10.122;2023-07-13T02:00:10;16.10;1.00
11944;DHT22;6031;50.220;10.122;2023-07-13T02:02:36;16.00;99.90
11944;DHT22;6031;50.220;10.122;2023-07-13T02:05:01;16.20;10.70
11944;DHT22;6031;50.220;10.122;2023-07-13T02:07:27;16.20;1.00
11944;DHT22;6031;50.220;10.122;2023-07-13T02:09:52;16.20;1.00
11944;DHT22;6031;50.220;10.122;2023-07-13T02:12:19;16.20;1.00
11944;DHT22;6031;50.220;10.122;2023-07-13T02:14:44;16.20;1.00
11944;DHT22;6031;50.220;10.122;2023-07-13T02:17:10;16.10;1.00
11944;DHT22;6031;50.220;10.122;2023-07-13T02:19:35;16.00;1.00
11944;DHT22;6031;50.220;10.122;2023-07-13T02:22:02;16.10;1.00
11944;DHT22;6031;50.220;10.122;2023-07-13T02:24:27;16.20;1.00
11944;DHT22;6031;50.220;10.122;2023-07-13T02:26:53;16.00;1.00
11944;DHT22;6031;50.220;10.122;2023-07-13T02:29:18;16.00;1.00
11944;DHT22;6031;50.220;10.122;2023-07-13T02:31:44;15.80;1.00
11944;DHT22;6031;50.220;10.122;2023-07-13T02:34:09;15.80;1.00
11944;DHT22;6031;50.220;10.122;2023-07-13T02:36:35;15.80;1.00
11944;DHT22;6031;50.220;10.122;2023-07-13T02:39:02;15.70;31.20
11944;DHT22;6031;50.220;10.122;2023-07-13T02:41:28;15.80;1.00
11944;DHT22;6031;50.220;10.122;2023-07-13T02:43:54;15.70;1.00
11944;DHT22;6031;50.220;10.122;2023-07-13T02:46:22;15.60;99.90
11944;DHT22;6031;50.220;10.122;2023-07-13T02:48:49;15.50;99.90
11944;DHT22;6031;50.220;10.122;2023-07-13T02:51:14;15.40;99.90
11944;DHT22;6031;50.220;10.122;2023-07-13T02:53:40;15.30;99.90
11944;DHT22;6031;50.220;10.122;2023-07-13T02:56:05;15.20;1.00
11944;DHT22;6031;50.220;10.122;2023-07-13T02:58:32;15.20;1.00
11944;DHT22;6031;50.220;10.122;2023-07-13T03:01:09;15.20;1.00
11944;DHT22;6031;50.220;10.122;2023-07-13T03:03:35;15.20;99.90
11944;DHT22;6031;50.220;10.122;2023-07-13T03:06:02;15.20;1.00
11944;DHT22;6031;50.220;10.122;2023-07-13T03:08:29;15.20;99.90
11944;DHT22;6031;50.220;10.122;2023-07-13T03:11:09;15.20;1.00
11944;DHT22;6031;50.220;10.122;2023-07-13T03:13:36;15.10;1.00
11944;DHT22;6031;50.220;10.122;2023-07-13T03:16:02;14.80;1.00
11944;DHT22;6031;50.220;10.122;2023-07-13T03:18:28;14.80;1.00
11944;DHT22;6031;50.220;10.122;2023-07-13T03:20:54;14.70;97.10
11944;DHT22;6031;50.220;10.122;2023-07-13T03:23:20;14.60;99.90
11944;DHT22;6031;50.220;10.122;2023-07-13T03:25:47;14.70;99.90
11944;DHT22;6031;50.220;10.122;2023-07-13T03:28:13;14.70;99.90
11944;DHT22;6031;50.220;10.122;2023-07-13T03:30:39;14.70;99.90
11944;DHT22;6031;50.220;10.122;2023-07-13T03:33:04;14.80;1.00
11944;DHT22;6031;50.220;10.122;2023-07-13T03:35:30;14.80;1.00
11944;DHT22;6031;50.220;10.122;2023-07-13T03:37:55;14.70;1.00
11944;DHT22;6031;50.220;10.122;2023-07-13T03:40:22;14.70;1.00
11944;DHT22;6031;50.220;10.122;2023-07-13T03:42:47;14.70;1.00
11944;DHT22;6031;50.220;10.122;2023-07-13T03:45:13;14.70;1.00
11944;DHT22;6031;50.220;10.122;2023-07-13T03:47:38;14.60;1.00
11944;DHT22;6031;50.220;10.122;2023-07-13T03:50:04;14.60;1.00
11944;DHT22;6031;50.220;10.122;2023-07-13T03:52:30;14.60;99.90
11944;DHT22;6031;50.220;10.122;2023-07-13T03:54:56;14.60;1.00
11944;DHT22;6031;50.220;10.122;2023-07-13T03:57:21;14.70;1.00
11944;DHT22;6031;50.220;10.122;2023-07-13T03:59:47;14.60;1.00
11944;DHT22;6031;50.220;10.122;2023-07-13T04:02:13;14.80;1.00
11944;DHT22;6031;50.220;10.122;2023-07-13T04:04:38;14.80;1.00
11944;DHT22;6031;50.220;10.122;2023-07-13T04:07:06;14.90;99.90
11944;DHT22;6031;50.220;10.122;2023-07-13T04:09:33;14.90;99.90
11944;DHT22;6031;50.220;10.122;2023-07-13T04:11:59;14.90;99.90
11944;DHT22;6031;50.220;10.122;2023-07-13T04:14:24;14.90;99.90
11944;DHT22;6031;50.220;10.122;2023-07-13T04:16:50;15.00;99.90
11944;DHT22;6031;50.220;10.122;2023-07-13T04:19:15;15.10;99.90
11944;DHT22;6031;50.220;10.122;2023-07-13T04:21:41;15.20;99.90
11944;DHT22;6031;50.220;10.122;2023-07-13T04:24:06;15.20;99.90
11944;DHT22;6031;50.220;10.122;2023-07-13T04:26:33;15.20;99.90
11944;DHT22;6031;50.220;10.122;2023-07-13T04:29:01;15.30;1.00
11944;DHT22;6031;50.220;10.122;2023-07-13T04:31:29;15.30;99.90
11944;DHT22;6031;50.220;10.122;2023-07-13T04:33:54;15.30;1.00
11944;DHT22;6031;50.220;10.122;2023-07-13T04:36:20;15.40;1.00
11944;DHT22;6031;50.220;10.122;2023-07-13T04:38:46;15.50;99.90
11944;DHT22;6031;50.220;10.122;2023-07-13T04:41:13;15.50;1.00
11944;DHT22;6031;50.220;10.122;2023-07-13T04:43:38;15.70;1.00
11944;DHT22;6031;50.220;10.122;2023-07-13T04:46:10;15.80;1.00
11944;DHT22;6031;50.220;10.122;2023-07-13T04:48:37;16.00;1.00
11944;DHT22;6031;50.220;10.122;2023-07-13T04:51:03;16.20;99.90
11944;DHT22;6031;50.220;10.122;2023-07-13T04:53:29;16.30;99.90
11944;DHT22;6031;50.220;10.122;2023-07-13T04:55:55;16.50;28.00
11944;DHT22;6031;50.220;10.122;2023-07-13T04:58:21;16.90;1.00
11944;DHT22;6031;50.220;10.122;2023-07-13T05:00:47;17.00;1.00
11944;DHT22;6031;50.220;10.122;2023-07-13T05:03:12;17.20;1.00
11944;DHT22;6031;50.220;10.122;2023-07-13T05:05:38;17.20;1.00
11944;DHT22;6031;50.220;10.122;2023-07-13T05:08:04;17.40;1.00
11944;DHT22;6031;50.220;10.122;2023-07-13T05:10:29;17.50;1.00
11944;DHT22;6031;50.220;10.122;2023-07-13T05:12:55;17.50;1.00
11944;DHT22;6031;50.220;10.122;2023-07-13T05:15:23;17.60;1.00
11944;DHT22;6031;50.220;10.122;2023-07-13T05:17:50;17.70;1.00
11944;DHT22;6031;50.220;10.122;2023-07-13T05:20:17;17.70;1.00
11944;DHT22;6031;50.220;10.122;2023-07-13T05:22:43;17.80;99.90
11944;DHT22;6031;50.220;10.122;2023-07-13T05:25:09;18.00;99.90
11944;DHT22;6031;50.220;10.122;2023-07-13T05:30:56;18.10;69.40
11944;DHT22;6031;50.220;10.122;2023-07-13T05:33:22;18.20;9.90
11944;DHT22;6031;50.220;10.122;2023-07-13T05:35:51;18.30;4.70
11944;DHT22;6031;50.220;10.122;2023-07-13T05:38:17;18.50;1.00
11944;DHT22;6031;50.220;10.122;2023-07-13T05:40:43;18.70;1.00
11944;DHT22;6031;50.220;10.122;2023-07-13T05:46:24;19.10;1.00
11944;DHT22;6031;50.220;10.122;2023-07-13T05:48:50;19.40;1.00
11944;DHT22;6031;50.220;10.122;2023-07-13T05:54:37;19.70;1.00
11944;DHT22;6031;50.220;10.122;2023-07-13T06:00:16;20.00;1.00
11944;DHT22;6031;50.220;10.122;2023-07-13T06:02:42;20.00;1.00
11944;DHT22;6031;50.220;10.122;2023-07-13T06:05:08;20.10;1.00
11944;DHT22;6031;50.220;10.122;2023-07-13T06:07:33;20.10;1.00
11944;DHT22;6031;50.220;10.122;2023-07-13T06:09:59;20.30;1.00
11944;DHT22;6031;50.220;10.122;2023-07-13T06:12:25;20.50;1.00
11944;DHT22;6031;50.220;10.122;2023-07-13T06:14:51;21.10;1.00
11944;DHT22;6031;50.220;10.122;2023-07-13T06:17:16;22.40;1.00
11944;DHT22;6031;50.220;10.122;2023-07-13T06:23:04;24.80;99.90
11944;DHT22;6031;50.220;10.122;2023-07-13T06:25:29;25.30;99.90
11944;DHT22;6031;50.220;10.122;2023-07-13T06:27:54;25.60;99.90
11944;DHT22;6031;50.220;10.122;2023-07-13T06:30:20;26.30;99.90
11944;DHT22;6031;50.220;10.122;2023-07-13T06:32:45;26.30;99.90
11944;DHT22;6031;50.220;10.122;2023-07-13T06:35:11;25.10;99.90
11944;DHT22;6031;50.220;10.122;2023-07-13T06:37:38;25.80;99.90
11944;DHT22;6031;50.220;10.122;2023-07-13T06:40:05;26.90;99.90
11944;DHT22;6031;50.220;10.122;2023-07-13T06:42:31;26.80;99.90
11944;DHT22;6031;50.220;10.122;2023-07-13T06:44:56;26.80;99.90
11944;DHT22;6031;50.220;10.122;2023-07-13T06:47:22;26.70;99.90
11944;DHT22;6031;50.220;10.122;2023-07-13T06:49:47;27.20;99.90
11944;DHT22;6031;50.220;10.122;2023-07-13T06:52:13;27.70;99.90
11944;DHT22;6031;50.220;10.122;2023-07-13T06:54:39;28.40;99.90
11944;DHT22;6031;50.220;10.122;2023-07-13T06:57:04;28.70;99.90
11944;DHT22;6031;50.220;10.122;2023-07-13T06:59:30;28.90;99.90
11944;DHT22;6031;50.220;10.122;2023-07-13T07:01:55;28.70;99.90
11944;DHT22;6031;50.220;10.122;2023-07-13T07:04:21;28.80;99.90
11944;DHT22;6031;50.220;10.122;2023-07-13T07:06:47;28.90;99.90
11944;DHT22;6031;50.220;10.122;2023-07-13T07:09:12;29.50;99.90
11944;DHT22;6031;50.220;10.122;2023-07-13T07:11:38;29.40;99.90
11944;DHT22;6031;50.220;10.122;2023-07-13T07:14:04;29.00;99.90
11944;DHT22;6031;50.220;10.122;2023-07-13T07:16:29;28.30;99.90
11944;DHT22;6031;50.220;10.122;2023-07-13T07:18:55;28.20;99.90
11944;DHT22;6031;50.220;10.122;2023-07-13T07:21:20;28.30;99.90
11944;DHT22;6031;50.220;10.122;2023-07-13T07:23:48;28.60;99.90
11944;DHT22;6031;50.220;10.122;2023-07-13T07:26:14;28.20;99.90
11944;DHT22;6031;50.220;10.122;2023-07-13T07:28:39;28.40;99.90
11944;DHT22;6031;50.220;10.122;2023-07-13T07:31:05;28.70;99.90
11944;DHT22;6031;50.220;10.122;2023-07-13T07:33:31;28.70;99.90
11944;DHT22;6031;50.220;10.122;2023-07-13T07:35:57;28.40;99.90
11944;DHT22;6031;50.220;10.122;2023-07-13T07:38:23;28.90;99.90
11944;DHT22;6031;50.220;10.122;2023-07-13T07:40:48;28.90;99.90
11944;DHT22;6031;50.220;10.122;2023-07-13T07:43:14;29.40;99.90
11944;DHT22;6031;50.220;10.122;2023-07-13T07:45:40;30.60;99.90
11944;DHT22;6031;50.220;10.122;2023-07-13T07:48:07;30.40;99.90
11944;DHT22;6031;50.220;10.122;2023-07-13T07:50:33;31.20;99.90
11944;DHT22;6031;50.220;10.122;2023-07-13T07:52:58;32.30;99.90
11944;DHT22;6031;50.220;10.122;2023-07-13T07:55:25;32.40;99.90
11944;DHT22;6031;50.220;10.122;2023-07-13T07:57:56;31.30;99.90
11944;DHT22;6031;50.220;10.122;2023-07-13T08:00:21;31.00;99.90
11944;DHT22;6031;50.220;10.122;2023-07-13T08:02:47;30.80;99.90
11944;DHT22;6031;50.220;10.122;2023-07-13T08:05:13;31.80;99.90
11944;DHT22;6031;50.220;10.122;2023-07-13T08:07:39;31.20;99.90
11944;DHT22;6031;50.220;10.122;2023-07-13T08:10:08;31.30;99.90
11944;DHT22;6031;50.220;10.122;2023-07-13T08:12:35;30.40;99.90
11944;DHT22;6031;50.220;10.122;2023-07-13T08:15:00;29.70;99.90
11944;DHT22;6031;50.220;10.122;2023-07-13T08:17:26;28.80;99.90
11944;DHT22;6031;50.220;10.122;2023-07-13T08:19:52;28.50;99.90
11944;DHT22;6031;50.220;10.122;2023-07-13T08:22:18;28.00;99.90
11944;DHT22;6031;50.220;10.122;2023-07-13T08:24:43;29.40;99.90
11944;DHT22;6031;50.220;10.122;2023-07-13T08:27:10;30.00;99.90
11944;DHT22;6031;50.220;10.122;2023-07-13T08:29:36;30.30;99.90
11944;DHT22;6031;50.220;10.122;2023-07-13T08:32:02;29.10;99.90
11944;DHT22;6031;50.220;10.122;2023-07-13T08:34:28;29.10;99.90
11944;DHT22;6031;50.220;10.122;2023-07-13T08:36:53;29.10;99.90
11944;DHT22;6031;50.220;10.122;2023-07-13T08:39:19;28.60;99.90
11944;DHT22;6031;50.220;10.122;2023-07-13T08:41:47;28.00;99.90
11944;DHT22;6031;50.220;10.122;2023-07-13T08:44:25;29.80;99.90
11944;DHT22;6031;50.220;10.122;2023-07-13T08:46:53;30.30;99.90
11944;DHT22;6031;50.220;10.122;2023-07-13T08:49:22;31.10;99.90
11944;DHT22;6031;50.220;10.122;2023-07-13T08:51:53;31.50;99.90
11944;DHT22;6031;50.220;10.122;2023-07-13T08:54:42;30.80;99.90
11944;DHT22;6031;50.220;10.122;2023-07-13T08:57:13;30.90;99.90
11944;DHT22;6031;50.220;10.122;2023-07-13T08:59:39;29.90;99.90
11944;DHT22;6031;50.220;10.122;2023-07-13T09:10:48;32.30;99.90
11944;DHT22;6031;50.220;10.122;2023-07-13T09:13:30;32.30;99.90
11944;DHT22;6031;50.220;10.122;2023-07-13T09:15:59;33.40;99.90
11944;DHT22;6031;50.220;10.122;2023-07-13T09:18:39;34.00;99.90
11944;DHT22;6031;50.220;10.122;2023-07-13T09:21:26;34.80;99.90
11944;DHT22;6031;50.220;10.122;2023-07-13T09:23:54;33.80;99.90
11944;DHT22;6031;50.220;10.122;2023-07-13T09:26:23;32.20;99.90
11944;DHT22;6031;50.220;10.122;2023-07-13T09:28:59;32.50;99.90
11944;DHT22;6031;50.220;10.122;2023-07-13T09:31:30;30.00;99.90
11944;DHT22;6031;50.220;10.122;2023-07-13T09:33:57;30.80;99.90
11944;DHT22;6031;50.220;10.122;2023-07-13T09:36:28;31.30;99.90
11944;DHT22;6031;50.220;10.122;2023-07-13T09:39:14;31.60;99.90
11944;DHT22;6031;50.220;10.122;2023-07-13T09:44:18;30.70;99.90
11944;DHT22;6031;50.220;10.122;2023-07-13T09:46:53;31.50;99.90
11944;DHT22;6031;50.220;10.122;2023-07-13T09:49:26;31.60;99.90
11944;DHT22;6031;50.220;10.122;2023-07-13T09:52:04;30.70;99.90
11944;DHT22;6031;50.220;10.122;2023-07-13T09:54:33;29.70;99.90
11944;DHT22;6031;50.220;10.122;2023-07-13T09:57:00;29.20;99.90
11944;DHT22;6031;50.220;10.122;2023-07-13T09:59:40;28.10;99.90
11944;DHT22;6031;50.220;10.122;2023-07-13T10:05:02;29.70;99.90
11944;DHT22;6031;50.220;10.122;2023-07-13T10:07:29;28.40;99.90
11944;DHT22;6031;50.220;10.122;2023-07-13T10:09:55;28.40;99.90
11944;DHT22;6031;50.220;10.122;2023-07-13T10:12:22;29.70;99.90
11944;DHT22;6031;50.220;10.122;2023-07-13T10:14:54;30.00;99.90
11944;DHT22;6031;50.220;10.122;2023-07-13T10:17:29;32.20;99.90
11944;DHT22;6031;50.220;10.122;2023-07-13T10:20:01;33.40;99.90
11944;DHT22;6031;50.220;10.122;2023-07-13T10:25:16;31.50;99.90
11944;DHT22;6031;50.220;10.122;2023-07-13T10:27:43;31.90;99.90
11944;DHT22;6031;50.220;10.122;2023-07-13T10:30:17;31.50;99.90
11944;DHT22;6031;50.220;10.122;2023-07-13T10:32:45;29.30;99.90
11944;DHT22;6031;50.220;10.122;2023-07-13T10:35:14;30.20;99.90
11944;DHT22;6031;50.220;10.122;2023-07-13T10:38:04;30.90;99.90
11944;DHT22;6031;50.220;10.122;2023-07-13T10:40:37;30.70;99.90
11944;DHT22;6031;50.220;10.122;2023-07-13T10:43:11;30.70;99.90
11944;DHT22;6031;50.220;10.122;2023-07-13T10:45:40;30.40;99.90
11944;DHT22;6031;50.220;10.122;2023-07-13T10:48:06;30.50;99.90
11944;DHT22;6031;50.220;10.122;2023-07-13T10:50:38;30.60;99.90
11944;DHT22;6031;50.220;10.122;2023-07-13T10:53:28;30.90;99.90
11944;DHT22;6031;50.220;10.122;2023-07-13T10:55:58;31.50;99.90
11944;DHT22;6031;50.220;10.122;2023-07-13T10:58:32;31.70;99.90
11944;DHT22;6031;50.220;10.122;2023-07-13T11:01:07;31.60;99.90
11944;DHT22;6031;50.220;10.122;2023-07-13T11:03:56;31.50;99.90
11944;DHT22;6031;50.220;10.122;2023-07-13T11:18:45;31.70;99.90
11944;DHT22;6031;50.220;10.122;2023-07-13T11:21:22;30.20;99.90
11944;DHT22;6031;50.220;10.122;2023-07-13T11:24:12;30.60;99.90
11944;DHT22;6031;50.220;10.122;2023-07-13T11:31:57;31.40;99.90
11944;DHT22;6031;50.220;10.122;2023-07-13T11:34:33;31.40;99.90
11944;DHT22;6031;50.220;10.122;2023-07-13T11:37:00;30.10;99.90
11944;DHT22;6031;50.220;10.122;2023-07-13T11:39:35;30.50;99.90
11944;DHT22;6031;50.220;10.122;2023-07-13T11:42:08;31.60;99.90
11944;DHT22;6031;50.220;10.122;2023-07-13T11:44:35;31.40;99.90
11944;DHT22;6031;50.220;10.122;2023-07-13T11:47:11;31.60;99.90
11944;DHT22;6031;50.220;10.122;2023-07-13T11:49:51;32.00;99.90
11944;DHT22;6031;50.220;10.122;2023-07-13T11:52:20;32.90;99.90
11944;DHT22;6031;50.220;10.122;2023-07-13T11:54:52;32.60;99.90
11944;DHT22;6031;50.220;10.122;2023-07-13T11:57:32;32.10;99.90
11944;DHT22;6031;50.220;10.122;2023-07-13T12:00:09;32.60;99.90
11944;DHT22;6031;50.220;10.122;2023-07-13T12:02:39;32.30;99.90
11944;DHT22;6031;50.220;10.122;2023-07-13T12:05:10;30.60;99.90
11944;DHT22;6031;50.220;10.122;2023-07-13T12:07:38;29.40;99.90
11944;DHT22;6031;50.220;10.122;2023-07-13T12:10:23;28.80;99.90
11944;DHT22;6031;50.220;10.122;2023-07-13T12:12:52;29.10;99.90
11944;DHT22;6031;50.220;10.122;2023-07-13T12:15:18;29.20;99.90
11944;DHT22;6031;50.220;10.122;2023-07-13T12:17:45;29.30;99.90
11944;DHT22;6031;50.220;10.122;2023-07-13T12:20:24;29.30;99.90
11944;DHT22;6031;50.220;10.122;2023-07-13T12:22:51;30.70;99.90
11944;DHT22;6031;50.220;10.122;2023-07-13T12:25:18;30.80;99.90
11944;DHT22;6031;50.220;10.122;2023-07-13T12:27:47;29.70;99.90
11944;DHT22;6031;50.220;10.122;2023-07-13T12:33:12;29.20;99.90
11944;DHT22;6031;50.220;10.122;2023-07-13T12:35:47;29.70;99.90
11944;DHT22;6031;50.220;10.122;2023-07-13T12:38:13;30.20;99.90
11944;DHT22;6031;50.220;10.122;2023-07-13T12:40:40;29.40;99.90
11944;DHT22;6031;50.220;10.122;2023-07-13T12:43:12;28.50;99.90
11944;DHT22;6031;50.220;10.122;2023-07-13T12:45:38;29.60;99.90
11944;DHT22;6031;50.220;10.122;2023-07-13T12:48:11;30.30;99.90
11944;DHT22;6031;50.220;10.122;2023-07-13T12:50:46;29.60;99.90
11944;DHT22;6031;50.220;10.122;2023-07-13T12:53:17;29.20;99.90
11944;DHT22;6031;50.220;10.122;2023-07-13T12:55:50;28.30;99.90
11944;DHT22;6031;50.220;10.122;2023-07-13T12:58:24;28.40;99.90
11944;DHT22;6031;50.220;10.122;2023-07-13T13:00:51;29.00;99.90
11944;DHT22;6031;50.220;10.122;2023-07-13T13:03:29;29.00;99.90
11944;DHT22;6031;50.220;10.122;2023-07-13T13:06:17;29.40;99.90
11944;DHT22;6031;50.220;10.122;2023-07-13T13:08:50;29.70;99.90
11944;DHT22;6031;50.220;10.122;2023-07-13T13:11:17;30.50;99.90
11944;DHT22;6031;50.220;10.122;2023-07-13T13:13:43;30.50;99.90
11944;DHT22;6031;50.220;10.122;2023-07-13T13:16:31;30.90;99.90
11944;DHT22;6031;50.220;10.122;2023-07-13T13:19:14;31.30;99.90
11944;DHT22;6031;50.220;10.122;2023-07-13T13:21:42;30.40;99.90
11944;DHT22;6031;50.220;10.122;2023-07-13T13:24:15;30.00;99.90
11944;DHT22;6031;50.220;10.122;2023-07-13T13:26:42;29.20;99.90
11944;DHT22;6031;50.220;10.122;2023-07-13T13:29:23;28.70;99.90
11944;DHT22;6031;50.220;10.122;2023-07-13T13:31:53;29.00;99.90
11944;DHT22;6031;50.220;10.122;2023-07-13T13:34:20;29.00;99.90
11944;DHT22;6031;50.220;10.122;2023-07-13T13:36:48;28.90;99.90
11944;DHT22;6031;50.220;10.122;2023-07-13T13:39:21;28.60;99.90
11944;DHT22;6031;50.220;10.122;2023-07-13T13:41:48;28.70;99.90
11944;DHT22;6031;50.220;10.122;2023-07-13T13:44:15;29.00;99.90
11944;DHT22;6031;50.220;10.122;2023-07-13T13:46:43;29.10;99.90
11944;DHT22;6031;50.220;10.122;2023-07-13T13:49:18;29.20;99.90
11944;DHT22;6031;50.220;10.122;2023-07-13T13:51:45;29.00;99.90
11944;DHT22;6031;50.220;10.122;2023-07-13T13:54:14;28.70;99.90
11944;DHT22;6031;50.220;10.122;2023-07-13T13:56:48;28.50;99.90
11944;DHT22;6031;50.220;10.122;2023-07-13T13:59:14;28.00;99.90
11944;DHT22;6031;50.220;10.122;2023-07-13T14:01:44;28.10;99.90
11944;DHT22;6031;50.220;10.122;2023-07-13T14:04:19;28.20;99.90
11944;DHT22;6031;50.220;10.122;2023-07-13T14:06:45;28.10;99.90
11944;DHT22;6031;50.220;10.122;2023-07-13T14:09:16;28.00;99.90
11944;DHT22;6031;50.220;10.122;2023-07-13T14:11:43;28.10;99.90
11944;DHT22;6031;50.220;10.122;2023-07-13T14:14:21;27.80;99.90
11944;DHT22;6031;50.220;10.122;2023-07-13T14:16:48;28.10;99.90
11944;DHT22;6031;50.220;10.122;2023-07-13T14:19:19;28.30;99.90
11944;DHT22;6031;50.220;10.122;2023-07-13T14:21:44;28.10;99.90
11944;DHT22;6031;50.220;10.122;2023-07-13T14:24:10;28.30;99.90
11944;DHT22;6031;50.220;10.122;2023-07-13T14:26:40;28.20;99.90
11944;DHT22;6031;50.220;10.122;2023-07-13T14:29:17;27.70;99.90
11944;DHT22;6031;50.220;10.122;2023-07-13T14:31:44;27.60;99.90
11944;DHT22;6031;50.220;10.122;2023-07-13T14:34:10;27.50;99.90
11944;DHT22;6031;50.220;10.122;2023-07-13T14:36:47;27.00;99.90
11944;DHT22;6031;50.220;10.122;2023-07-13T14:39:16;26.80;99.90
11944;DHT22;6031;50.220;10.122;2023-07-13T14:41:43;27.20;99.90
11944;DHT22;6031;50.220;10.122;2023-07-13T14:44:13;27.50;99.90
11944;DHT22;6031;50.220;10.122;2023-07-13T14:46:39;28.50;99.90
11944;DHT22;6031;50.220;10.122;2023-07-13T14:51:48;28.90;99.90
11944;DHT22;6031;50.220;10.122;2023-07-13T14:54:14;29.10;99.90
11944;DHT22;6031;50.220;10.122;2023-07-13T14:56:39;29.40;99.90
11944;DHT22;6031;50.220;10.122;2023-07-13T14:59:05;29.20;99.90
11944;DHT22;6031;50.220;10.122;2023-07-13T15:01:37;28.80;99.90
11944;DHT22;6031;50.220;10.122;2023-07-13T15:04:04;28.70;99.90
11944;DHT22;6031;50.220;10.122;2023-07-13T15:06:29;28.60;99.90
11944;DHT22;6031;50.220;10.122;2023-07-13T15:08:56;28.80;99.90
11944;DHT22;6031;50.220;10.122;2023-07-13T15:11:22;29.00;99.90
11944;DHT22;6031;50.220;10.122;2023-07-13T15:13:48;29.30;99.90
11944;DHT22;6031;50.220;10.122;2023-07-13T15:16:18;30.00;99.90
11944;DHT22;6031;50.220;10.122;2023-07-13T15:18:47;30.00;99.90
11944;DHT22;6031;50.220;10.122;2023-07-13T15:21:21;29.80;99.90
11944;DHT22;6031;50.220;10.122;2023-07-13T15:23:48;29.30;99.90
11944;DHT22;6031;50.220;10.122;2023-07-13T15:26:15;29.50;99.90
11944;DHT22;6031;50.220;10.122;2023-07-13T15:28:42;29.90;99.90
11944;DHT22;6031;50.220;10.122;2023-07-13T15:31:19;29.70;99.90
11944;DHT22;6031;50.220;10.122;2023-07-13T15:33:46;29.10;99.90
11944;DHT22;6031;50.220;10.122;2023-07-13T15:36:14;28.70;99.90
11944;DHT22;6031;50.220;10.122;2023-07-13T15:38:39;28.30;99.90
11944;DHT22;6031;50.220;10.122;2023-07-13T15:41:20;28.10;99.90
11944;DHT22;6031;50.220;10.122;2023-07-13T15:43:49;28.20;99.90
11944;DHT22;6031;50.220;10.122;2023-07-13T15:46:15;27.70;99.90
11944;DHT22;6031;50.220;10.122;2023-07-13T15:48:41;27.80;99.90
11944;DHT22;6031;50.220;10.122;2023-07-13T15:51:14;27.70;99.90
11944;DHT22;6031;50.220;10.122;2023-07-13T15:53:40;27.20;99.90
11944;DHT22;6031;50.220;10.122;2023-07-13T15:56:21;26.90;99.90
11944;DHT22;6031;50.220;10.122;2023-07-13T15:58:48;26.60;99.90
11944;DHT22;6031;50.220;10.122;2023-07-13T16:01:14;26.40;99.90
11944;DHT22;6031;50.220;10.122;2023-07-13T16:03:40;26.20;99.90
11944;DHT22;6031;50.220;10.122;2023-07-13T16:06:15;26.10;99.90
11944;DHT22;6031;50.220;10.122;2023-07-13T16:08:42;26.10;99.90
11944;DHT22;6031;50.220;10.122;2023-07-13T16:11:16;26.00;99.90
11944;DHT22;6031;50.220;10.122;2023-07-13T16:13:43;25.90;99.90
11944;DHT22;6031;50.220;10.122;2023-07-13T16:16:11;25.60;99.90
11944;DHT22;6031;50.220;10.122;2023-07-13T16:18:37;25.50;99.90
11944;DHT22;6031;50.220;10.122;2023-07-13T16:21:09;25.50;99.90
11944;DHT22;6031;50.220;10.122;2023-07-13T16:23:36;25.70;99.90
11944;DHT22;6031;50.220;10.122;2023-07-13T16:26:02;25.80;99.90
11944;DHT22;6031;50.220;10.122;2023-07-13T16:28:28;25.50;99.90
11944;DHT22;6031;50.220;10.122;2023-07-13T16:30:54;25.60;99.90
11944;DHT22;6031;50.220;10.122;2023-07-13T16:33:19;25.60;99.90
11944;DHT22;6031;50.220;10.122;2023-07-13T16:35:47;25.50;99.90
11944;DHT22;6031;50.220;10.122;2023-07-13T16:38:19;25.40;99.90